Terminal Aerodrome Forecast
Issued by NWS

Home | Current Version | Previous Version | Text Only | Print | Product List | Glossary On
Versions: 1 2 3 4 5 6 7 8 9 10 11 12 13 14 15 16 17 18 19 20 21 22 23 24 25 26 27 28 29 30 31 32 33 34 35
000
FTUS45 KBOU 211741
TAFAPA
TAF
KAPA 211741Z 2118/2218 16010KT P6SM FEW090 BKN180
     FM211900 24015G23KT P6SM SCT080 BKN120
     FM212100 27018G25KT P6SM SCT060 BKN100
     FM220100 31020G32KT P6SM BKN060 OVC120
     FM220600 34013G21KT P6SM VCSH BKN060 OVC090 PROB30 2208/2213
      3SM -SHSN BKN030 OVC060
     FM221400 31012G20KT P6SM VCSH SCT080 BKN120=

USA.gov is the U.S. government's official web portal to all federal, state and local government web resources and services.